createdAt,value
2022-09-18T00:00:31.576Z,50.30
2022-09-18T00:02:59.659Z,50.35
2022-09-18T00:05:27.697Z,50.38
2022-09-18T00:07:55.759Z,50.48
2022-09-18T00:10:25.606Z,50.58
2022-09-18T00:12:53.671Z,50.50
2022-09-18T00:15:21.662Z,50.57
2022-09-18T00:17:49.679Z,50.73
2022-09-18T00:20:17.838Z,50.61
2022-09-18T00:22:47.153Z,50.62
2022-09-18T00:25:15.292Z,50.68
2022-09-18T00:27:44.731Z,50.83
2022-09-18T00:30:13.549Z,50.67
2022-09-18T00:32:41.877Z,51.22
2022-09-18T00:35:10.506Z,50.95
2022-09-18T00:37:38.559Z,50.88
2022-09-18T00:40:07.150Z,50.83
2022-09-18T00:42:35.234Z,50.91
2022-09-18T00:45:04.947Z,50.87
2022-09-18T00:47:34.057Z,50.87
2022-09-18T00:50:06.039Z,51.18
2022-09-18T00:52:41.065Z,50.94
2022-09-18T00:55:10.320Z,51.25
2022-09-18T00:57:41.347Z,51.03
2022-09-18T01:00:14.466Z,51.16
2022-09-18T01:02:43.810Z,51.03
2022-09-18T01:05:12.789Z,50.80
2022-09-18T01:07:50.865Z,50.98
2022-09-18T01:10:27.183Z,51.02
2022-09-18T01:12:57.078Z,50.92
2022-09-18T01:15:31.491Z,51.00
2022-09-18T01:18:03.777Z,50.84
2022-09-18T01:20:48.130Z,50.87
2022-09-18T01:23:28.746Z,51.23
2022-09-18T01:26:01.405Z,51.22
2022-09-18T01:28:34.095Z,51.01
2022-09-18T01:31:05.708Z,51.36
2022-09-18T01:33:51.150Z,51.23
2022-09-18T01:36:20.027Z,51.29
2022-09-18T01:38:49.562Z,51.03
2022-09-18T01:41:20.030Z,51.15
2022-09-18T01:43:49.842Z,51.29
2022-09-18T01:46:19.692Z,51.26
2022-09-18T01:48:50.466Z,51.15
2022-09-18T01:51:20.621Z,51.37
2022-09-18T01:53:49.866Z,51.10
2022-09-18T01:56:18.384Z,51.03
2022-09-18T01:58:46.475Z,51.13
2022-09-18T02:01:17.089Z,51.11
2022-09-18T02:03:47.578Z,51.12
2022-09-18T02:06:17.840Z,51.10
2022-09-18T02:08:47.890Z,51.27
2022-09-18T02:11:17.587Z,51.65
2022-09-18T02:13:47.531Z,51.75
2022-09-18T02:16:19.861Z,51.53
2022-09-18T02:18:49.876Z,51.54
2022-09-18T02:21:23.402Z,51.62
2022-09-18T02:23:51.478Z,51.71
2022-09-18T02:26:19.479Z,51.64
2022-09-18T02:28:48.168Z,51.67
2022-09-18T02:31:18.684Z,51.38
2022-09-18T02:33:48.627Z,51.40
2022-09-18T02:36:46.270Z,51.29
2022-09-18T02:39:22.556Z,51.27
2022-09-18T02:41:52.561Z,51.32
2022-09-18T02:44:21.891Z,51.43
2022-09-18T02:46:56.518Z,51.43
2022-09-18T02:49:32.752Z,51.10
2022-09-18T02:52:03.700Z,51.42
2022-09-18T02:54:35.352Z,51.68
2022-09-18T02:57:04.250Z,51.50
2022-09-18T02:59:33.072Z,51.38
2022-09-18T03:02:01.235Z,51.75
2022-09-18T03:04:33.124Z,51.52
2022-09-18T03:07:03.725Z,51.62
2022-09-18T03:09:34.947Z,51.67
2022-09-18T03:12:03.291Z,51.52
2022-09-18T03:14:37.824Z,51.65
2022-09-18T03:17:06.062Z,51.63
2022-09-18T03:19:35.416Z,51.19
2022-09-18T03:22:04.251Z,51.18
2022-09-18T03:24:35.961Z,51.13
2022-09-18T03:27:05.538Z,51.46
2022-09-18T03:29:33.603Z,51.55
2022-09-18T03:32:03.107Z,51.92
2022-09-18T03:34:38.735Z,51.95
2022-09-18T03:37:06.842Z,51.77
2022-09-18T03:39:35.137Z,52.07
2022-09-18T03:42:04.975Z,52.17
2022-09-18T03:44:33.258Z,52.14
2022-09-18T03:47:04.878Z,52.18
2022-09-18T03:49:32.955Z,52.28
2022-09-18T03:52:02.607Z,51.88
2022-09-18T03:54:35.849Z,52.13
2022-09-18T03:57:17.964Z,52.28
2022-09-18T04:00:09.582Z,51.95
2022-09-18T04:02:43.382Z,52.41
2022-09-18T04:05:43.834Z,52.14
2022-09-18T04:08:31.430Z,52.70
2022-09-18T04:11:25.242Z,52.81
2022-09-18T04:13:54.068Z,52.61
2022-09-18T04:16:22.923Z,52.50
2022-09-18T04:18:52.906Z,52.36
2022-09-18T04:21:23.028Z,52.60
2022-09-18T04:23:54.114Z,52.20
2022-09-18T04:26:22.142Z,52.45
2022-09-18T04:28:55.233Z,52.43
2022-09-18T04:31:23.408Z,52.39
2022-09-18T04:33:51.552Z,52.51
2022-09-18T04:36:23.418Z,52.15
2022-09-18T04:38:53.239Z,52.45
2022-09-18T04:41:21.523Z,52.48
2022-09-18T04:43:49.782Z,52.06
2022-09-18T04:46:19.850Z,52.19
2022-09-18T04:48:49.318Z,52.50
2022-09-18T04:51:18.616Z,52.48
2022-09-18T04:53:49.341Z,52.15
2022-09-18T04:56:19.214Z,52.01
2022-09-18T04:58:51.130Z,52.05
2022-09-18T05:01:19.234Z,52.16
2022-09-18T05:03:47.588Z,52.47
2022-09-18T05:06:26.862Z,52.08
2022-09-18T05:08:54.932Z,52.14
2022-09-18T05:11:28.248Z,52.04
2022-09-18T05:13:56.983Z,52.19
2022-09-18T05:16:27.132Z,52.08
2022-09-18T05:19:15.498Z,51.86
2022-09-18T05:21:43.543Z,52.35
2022-09-18T05:24:14.092Z,52.17
2022-09-18T05:26:44.897Z,52.02
2022-09-18T05:29:13.132Z,52.22
2022-09-18T05:31:43.116Z,52.45
2022-09-18T05:34:11.214Z,52.65
2022-09-18T05:36:41.442Z,52.81
2022-09-18T05:39:12.120Z,52.54
2022-09-18T05:41:44.470Z,52.44
2022-09-18T05:44:13.541Z,52.49
2022-09-18T05:46:41.640Z,52.67
2022-09-18T05:49:09.733Z,52.39
2022-09-18T05:51:39.082Z,52.44
2022-09-18T05:54:07.246Z,52.53
2022-09-18T05:56:41.681Z,52.45
2022-09-18T05:59:11.242Z,52.50
2022-09-18T06:01:41.661Z,52.54
2022-09-18T06:04:22.151Z,52.45
2022-09-18T06:06:54.874Z,52.48
2022-09-18T06:09:22.946Z,52.53
2022-09-18T06:11:51.055Z,52.54
2022-09-18T06:14:20.914Z,52.96
2022-09-18T06:16:49.333Z,52.93
2022-09-18T06:19:17.922Z,53.07
2022-09-18T06:21:48.960Z,52.96
2022-09-18T06:24:19.411Z,52.51
2022-09-18T06:27:07.673Z,52.85
2022-09-18T06:29:37.349Z,52.53
2022-09-18T06:32:10.901Z,52.53
2022-09-18T06:34:40.623Z,52.96
2022-09-18T06:37:11.294Z,52.70
2022-09-18T06:39:45.302Z,52.76
2022-09-18T06:42:29.133Z,52.54
2022-09-18T06:45:18.967Z,52.47
2022-09-18T06:47:54.158Z,52.81
2022-09-18T06:50:23.869Z,52.82
2022-09-18T06:52:51.956Z,52.74
2022-09-18T06:55:20.518Z,52.98
2022-09-18T06:57:54.658Z,53.27
2022-09-18T07:00:24.234Z,52.74
2022-09-18T07:02:57.640Z,52.91
2022-09-18T07:05:45.423Z,53.16
2022-09-18T07:08:22.042Z,53.06
2022-09-18T07:10:54.429Z,53.22
2022-09-18T07:13:23.326Z,53.21
2022-09-18T07:15:52.858Z,52.84
2022-09-18T07:18:21.305Z,53.05
2022-09-18T07:20:49.380Z,52.89
2022-09-18T07:23:33.200Z,53.11
2022-09-18T07:26:01.630Z,53.34
2022-09-18T07:28:29.770Z,53.13
2022-09-18T07:31:07.200Z,52.71
2022-09-18T07:33:37.283Z,52.75
2022-09-18T07:36:06.581Z,53.21
2022-09-18T07:38:37.546Z,53.17
2022-09-18T07:41:06.762Z,53.03
2022-09-18T07:43:35.441Z,53.37
2022-09-18T07:46:03.649Z,53.19
2022-09-18T07:48:36.144Z,53.22
2022-09-18T07:51:18.829Z,53.30
2022-09-18T07:53:50.122Z,53.52
2022-09-18T07:56:27.082Z,53.31
2022-09-18T07:58:56.382Z,53.62
2022-09-18T08:01:28.421Z,53.71
2022-09-18T08:04:00.604Z,53.78
2022-09-18T08:06:37.501Z,53.90
2022-09-18T08:09:27.718Z,53.75
2022-09-18T08:12:12.374Z,53.56
2022-09-18T08:15:03.784Z,53.31
2022-09-18T08:17:45.832Z,53.07
2022-09-18T08:20:31.691Z,52.89
2022-09-18T08:23:15.802Z,52.69
2022-09-18T08:25:44.388Z,52.52
2022-09-18T08:28:12.660Z,52.63
2022-09-18T08:30:50.763Z,52.95
2022-09-18T08:33:19.393Z,53.05
2022-09-18T08:35:48.981Z,52.76
2022-09-18T08:38:25.116Z,52.46
2022-09-18T08:41:38.799Z,51.85
2022-09-18T08:44:09.476Z,51.65
2022-09-18T08:46:41.124Z,51.38
2022-09-18T08:49:21.720Z,51.36
2022-09-18T08:52:04.789Z,51.52
2022-09-18T08:54:43.507Z,51.67
2022-09-18T08:57:18.769Z,51.81
2022-09-18T09:00:23.346Z,51.57
2022-09-18T09:03:02.844Z,50.98
2022-09-18T09:05:32.916Z,50.60
2022-09-18T09:08:28.733Z,50.39
2022-09-18T09:11:00.417Z,50.36
2022-09-18T09:14:10.695Z,50.42
2022-09-18T09:16:43.417Z,50.37
2022-09-18T09:19:31.460Z,50.28
2022-09-18T09:22:05.644Z,50.92
2022-09-18T09:24:38.099Z,50.92
2022-09-18T09:27:13.299Z,50.95
2022-09-18T09:30:14.495Z,50.56
2022-09-18T09:33:16.813Z,50.23
2022-09-18T09:36:09.409Z,50.23
2022-09-18T09:38:54.005Z,50.35
2022-09-18T09:41:29.008Z,50.47
2022-09-18T09:44:02.317Z,50.25
2022-09-18T09:46:41.950Z,50.09
2022-09-18T09:49:12.285Z,49.89
2022-09-18T09:51:44.640Z,49.00
2022-09-18T09:54:12.798Z,48.88
2022-09-18T09:56:44.372Z,48.96
2022-09-18T09:59:17.720Z,48.36
2022-09-18T10:02:34.395Z,47.80
2022-09-18T10:05:07.701Z,47.08
2022-09-18T10:07:38.244Z,46.10
2022-09-18T10:10:08.527Z,43.38
2022-09-18T10:12:42.385Z,43.06
2022-09-18T10:15:17.407Z,43.16
2022-09-18T10:17:46.988Z,42.76
2022-09-18T10:20:16.614Z,41.46
2022-09-18T10:22:44.894Z,40.75
2022-09-18T10:25:17.286Z,40.00
2022-09-18T10:27:47.274Z,38.93
2022-09-18T10:30:16.450Z,38.53
2022-09-18T10:32:51.004Z,37.62
2022-09-18T10:35:41.476Z,38.11
2022-09-18T10:38:33.537Z,37.70
2022-09-18T10:41:28.696Z,36.91
2022-09-18T10:44:00.366Z,37.28
2022-09-18T10:46:31.602Z,37.35
2022-09-18T10:49:00.710Z,37.48
2022-09-18T10:51:29.419Z,37.92
2022-09-18T10:54:04.106Z,38.21
2022-09-18T10:56:51.717Z,37.91
2022-09-18T10:59:36.674Z,38.76
2022-09-18T11:02:06.313Z,39.04
2022-09-18T11:04:36.649Z,38.28
2022-09-18T11:07:07.610Z,38.15
2022-09-18T11:09:38.747Z,37.97
2022-09-18T11:12:15.689Z,38.74
2022-09-18T11:14:48.161Z,37.99
2022-09-18T11:17:26.623Z,38.15
2022-09-18T11:19:56.404Z,38.01
2022-09-18T11:22:41.629Z,37.96
2022-09-18T11:25:38.873Z,38.40
2022-09-18T11:28:23.255Z,38.96
2022-09-18T11:31:00.419Z,39.66
2022-09-18T11:33:30.070Z,39.95
2022-09-18T11:36:02.212Z,39.06
2022-09-18T11:38:31.643Z,39.07
2022-09-18T11:41:04.345Z,38.44
2022-09-18T11:43:39.482Z,38.12
2022-09-18T11:46:14.740Z,38.26
2022-09-18T11:48:45.090Z,38.72
2022-09-18T11:51:16.657Z,38.65
2022-09-18T11:53:47.400Z,39.05
2022-09-18T11:56:17.274Z,38.57
2022-09-18T11:58:48.499Z,38.45
2022-09-18T12:01:24.575Z,38.24
2022-09-18T12:03:55.082Z,38.82
2022-09-18T12:06:27.531Z,39.09
2022-09-18T12:08:56.626Z,38.99
2022-09-18T12:11:32.501Z,39.16
2022-09-18T12:14:05.333Z,39.00
2022-09-18T12:16:45.788Z,39.22
2022-09-18T12:19:18.202Z,39.12
2022-09-18T12:21:55.002Z,38.97
2022-09-18T12:24:24.027Z,38.92
2022-09-18T12:27:10.055Z,39.39
2022-09-18T12:29:46.452Z,40.02
2022-09-18T12:32:23.314Z,39.38
2022-09-18T12:34:55.248Z,37.95
2022-09-18T12:37:40.082Z,38.80
2022-09-18T12:40:42.076Z,37.03
2022-09-18T12:43:21.954Z,36.04
2022-09-18T12:46:23.368Z,34.88
2022-09-18T12:49:12.812Z,33.71
2022-09-18T12:51:43.286Z,34.03
2022-09-18T12:54:33.611Z,34.20
2022-09-18T12:57:14.750Z,33.92
2022-09-18T12:59:55.165Z,33.51
2022-09-18T13:02:28.488Z,33.97
2022-09-18T13:04:59.807Z,33.99
2022-09-18T13:07:29.715Z,33.55
2022-09-18T13:10:00.406Z,33.63
2022-09-18T13:12:32.143Z,34.12
2022-09-18T13:15:01.135Z,33.21
2022-09-18T13:17:32.567Z,31.96
2022-09-18T13:20:06.657Z,32.73
2022-09-18T13:22:36.373Z,32.08
2022-09-18T13:25:04.557Z,31.88
2022-09-18T13:27:32.716Z,31.95
2022-09-18T13:30:10.806Z,32.22
2022-09-18T13:32:40.947Z,32.38
2022-09-18T13:35:20.667Z,32.94
2022-09-18T13:37:49.060Z,32.29
2022-09-18T13:40:28.673Z,32.43
2022-09-18T13:42:58.356Z,32.04
2022-09-18T13:45:27.134Z,32.34
2022-09-18T13:48:03.664Z,33.64
2022-09-18T13:50:33.307Z,32.98
2022-09-18T13:53:02.021Z,33.56
2022-09-18T13:55:52.721Z,33.46
2022-09-18T13:58:50.096Z,33.42
2022-09-18T14:01:59.999Z,32.89
2022-09-18T14:04:50.580Z,32.13
2022-09-18T14:07:49.560Z,33.42
2022-09-18T14:10:37.596Z,34.23
2022-09-18T14:13:33.916Z,34.57
2022-09-18T14:16:06.012Z,34.53
2022-09-18T14:18:36.643Z,34.24
2022-09-18T14:21:24.685Z,34.33
2022-09-18T14:24:25.415Z,34.34
2022-09-18T14:27:23.164Z,33.96
2022-09-18T14:29:55.093Z,33.38
2022-09-18T14:32:24.663Z,31.53
2022-09-18T14:34:54.830Z,30.85
2022-09-18T14:37:27.930Z,31.46
2022-09-18T14:39:58.675Z,31.88
2022-09-18T14:42:33.266Z,32.62
2022-09-18T14:45:15.539Z,32.88
2022-09-18T14:47:44.742Z,33.85
2022-09-18T14:50:33.861Z,34.23
2022-09-18T14:53:03.618Z,34.75
2022-09-18T14:55:35.225Z,35.21
2022-09-18T14:58:05.754Z,35.58
2022-09-18T15:00:34.709Z,36.34
2022-09-18T15:03:04.926Z,36.72
2022-09-18T15:05:34.082Z,36.65
2022-09-18T15:08:03.770Z,37.04
2022-09-18T15:10:34.895Z,36.94
2022-09-18T15:13:04.454Z,36.87
2022-09-18T15:15:34.221Z,36.16
2022-09-18T15:18:02.650Z,36.28
2022-09-18T15:20:31.061Z,36.02
2022-09-18T15:22:59.171Z,36.16
2022-09-18T15:25:29.847Z,36.42
2022-09-18T15:28:02.818Z,36.68
2022-09-18T15:30:30.903Z,36.67
2022-09-18T15:33:00.186Z,36.16
2022-09-18T15:35:29.673Z,35.98
2022-09-18T15:38:02.846Z,35.09
2022-09-18T15:40:33.332Z,34.26
2022-09-18T15:43:03.994Z,33.98
2022-09-18T15:45:32.717Z,34.06
2022-09-18T15:48:01.741Z,34.19
2022-09-18T15:50:40.498Z,34.57
2022-09-18T15:53:23.524Z,34.84
2022-09-18T15:55:56.698Z,35.14
2022-09-18T15:58:37.074Z,35.63
2022-09-18T16:01:06.117Z,35.61
2022-09-18T16:03:34.557Z,35.56
2022-09-18T16:06:05.321Z,35.70
2022-09-18T16:08:34.191Z,35.11
2022-09-18T16:11:02.244Z,34.42
2022-09-18T16:13:35.417Z,32.96
2022-09-18T16:16:25.211Z,31.47
2022-09-18T16:18:56.242Z,30.45
2022-09-18T16:21:25.690Z,30.41
2022-09-18T16:23:55.299Z,31.04
2022-09-18T16:26:26.836Z,30.92
2022-09-18T16:28:57.084Z,30.52
2022-09-18T16:31:26.137Z,30.02
2022-09-18T16:33:57.292Z,30.46
2022-09-18T16:36:27.981Z,30.80
2022-09-18T16:38:56.094Z,31.48
2022-09-18T16:41:24.109Z,32.09
2022-09-18T16:43:53.926Z,31.15
2022-09-18T16:46:23.831Z,31.53
2022-09-18T16:48:52.127Z,32.60
2022-09-18T16:51:21.942Z,32.29
2022-09-18T16:53:50.029Z,32.13
2022-09-18T16:56:18.856Z,31.09
2022-09-18T16:58:47.049Z,30.22
2022-09-18T17:01:15.704Z,29.78
2022-09-18T17:03:45.110Z,29.96
2022-09-18T17:06:17.079Z,30.46
2022-09-18T17:08:46.947Z,29.71
2022-09-18T17:11:15.003Z,29.82
2022-09-18T17:13:43.207Z,29.82
2022-09-18T17:16:11.221Z,31.21
2022-09-18T17:18:39.323Z,31.28
2022-09-18T17:21:08.815Z,31.44
2022-09-18T17:23:37.056Z,31.41
2022-09-18T17:26:06.540Z,31.20
2022-09-18T17:28:34.629Z,31.09
2022-09-18T17:31:09.591Z,31.24
2022-09-18T17:33:37.717Z,31.81
2022-09-18T17:36:06.394Z,32.32
2022-09-18T17:38:36.123Z,32.72
2022-09-18T17:41:05.264Z,33.10
2022-09-18T17:43:33.341Z,32.70
2022-09-18T17:46:02.062Z,33.70
2022-09-18T17:48:31.359Z,33.91
2022-09-18T17:50:59.521Z,33.96
2022-09-18T17:53:27.640Z,34.29
2022-09-18T17:55:57.613Z,34.75
2022-09-18T17:58:27.956Z,35.13
2022-09-18T18:00:56.378Z,36.41
2022-09-18T18:03:24.722Z,37.32
2022-09-18T18:05:53.411Z,37.29
2022-09-18T18:08:21.405Z,38.43
2022-09-18T18:10:49.418Z,38.61
2022-09-18T18:13:19.069Z,39.18
2022-09-18T18:15:48.137Z,39.73
2022-09-18T18:18:16.233Z,39.97
2022-09-18T18:20:50.789Z,40.19
2022-09-18T18:23:18.888Z,40.58
2022-09-18T18:25:47.195Z,40.62
2022-09-18T18:28:15.376Z,40.82
2022-09-18T18:30:45.454Z,40.89
2022-09-18T18:33:13.543Z,40.85
2022-09-18T18:35:41.728Z,41.37
2022-09-18T18:38:10.095Z,41.38
2022-09-18T18:40:38.910Z,41.83
2022-09-18T18:43:07.120Z,42.28
2022-09-18T18:45:37.495Z,42.74
2022-09-18T18:48:09.817Z,43.23
2022-09-18T18:50:42.699Z,43.44
2022-09-18T18:53:11.203Z,43.81
2022-09-18T18:55:39.177Z,44.04
2022-09-18T18:58:07.257Z,44.59
2022-09-18T19:00:36.387Z,44.48
2022-09-18T19:03:04.489Z,44.97
2022-09-18T19:05:35.126Z,44.88
2022-09-18T19:08:03.477Z,45.11
2022-09-18T19:10:32.002Z,45.16
2022-09-18T19:13:01.970Z,45.27
2022-09-18T19:15:30.053Z,45.77
2022-09-18T19:18:01.901Z,45.84
2022-09-18T19:20:30.406Z,45.67
2022-09-18T19:22:59.905Z,46.16
2022-09-18T19:25:28.134Z,45.60
2022-09-18T19:27:56.677Z,46.19
2022-09-18T19:30:25.964Z,45.97
2022-09-18T19:32:56.829Z,46.30
2022-09-18T19:35:24.893Z,46.57
2022-09-18T19:37:52.871Z,46.61
2022-09-18T19:40:22.587Z,46.86
2022-09-18T19:42:55.580Z,47.00
2022-09-18T19:45:25.097Z,46.94
2022-09-18T19:47:53.118Z,47.23
2022-09-18T19:50:25.186Z,47.46
2022-09-18T19:52:53.282Z,47.56
2022-09-18T19:55:22.767Z,47.64
2022-09-18T19:57:50.950Z,47.87
2022-09-18T20:00:19.218Z,48.01
2022-09-18T20:02:47.644Z,48.18
2022-09-18T20:05:15.874Z,48.19
2022-09-18T20:07:43.922Z,48.54
2022-09-18T20:10:13.429Z,48.56
2022-09-18T20:12:43.272Z,48.65
2022-09-18T20:15:12.254Z,48.98
2022-09-18T20:17:40.289Z,49.05
2022-09-18T20:20:10.801Z,49.14
2022-09-18T20:22:41.679Z,49.50
2022-09-18T20:25:10.350Z,49.66
2022-09-18T20:27:39.491Z,49.73
2022-09-18T20:30:12.642Z,50.08
2022-09-18T20:32:40.858Z,49.88
2022-09-18T20:35:09.998Z,49.86
2022-09-18T20:37:37.995Z,50.00
2022-09-18T20:40:07.353Z,49.89
2022-09-18T20:42:35.594Z,50.25
2022-09-18T20:45:03.745Z,50.15
2022-09-18T20:47:35.026Z,50.81
2022-09-18T20:50:06.676Z,51.08
2022-09-18T20:52:36.686Z,51.22
2022-09-18T20:55:08.744Z,51.18
2022-09-18T20:57:37.335Z,51.20
2022-09-18T21:00:06.456Z,51.40
2022-09-18T21:02:36.414Z,51.34
2022-09-18T21:05:07.442Z,51.88
2022-09-18T21:07:35.641Z,51.95
2022-09-18T21:10:03.651Z,52.06
2022-09-18T21:12:35.168Z,52.45
2022-09-18T21:15:03.708Z,52.45
2022-09-18T21:17:32.275Z,52.33
2022-09-18T21:20:02.272Z,52.54
2022-09-18T21:22:31.781Z,52.71
2022-09-18T21:24:59.919Z,52.56
2022-09-18T21:27:30.294Z,52.50
2022-09-18T21:29:59.173Z,52.38
2022-09-18T21:32:27.213Z,52.31
2022-09-18T21:34:55.309Z,52.08
2022-09-18T21:37:24.740Z,51.90
2022-09-18T21:39:55.897Z,51.87
2022-09-18T21:42:25.181Z,51.77
2022-09-18T21:44:53.306Z,51.78
2022-09-18T21:47:21.359Z,51.51
2022-09-18T21:49:49.422Z,51.44
2022-09-18T21:52:17.445Z,51.47
2022-09-18T21:54:48.915Z,51.46
2022-09-18T21:57:18.692Z,51.46
2022-09-18T21:59:47.698Z,51.19
2022-09-18T22:02:17.284Z,51.17
2022-09-18T22:04:46.050Z,51.08
2022-09-18T22:07:30.092Z,51.25
2022-09-18T22:10:01.215Z,51.36
2022-09-18T22:12:29.289Z,51.06
2022-09-18T22:14:57.492Z,51.03
2022-09-18T22:17:27.767Z,51.15
2022-09-18T22:19:59.500Z,51.27
2022-09-18T22:22:29.336Z,51.27
2022-09-18T22:25:03.154Z,51.20
2022-09-18T22:27:31.886Z,51.22
2022-09-18T22:30:00.718Z,51.32
2022-09-18T22:32:29.286Z,51.11
2022-09-18T22:34:57.630Z,51.30
2022-09-18T22:37:26.810Z,51.26
2022-09-18T22:39:55.421Z,51.27
2022-09-18T22:42:25.229Z,51.15
2022-09-18T22:44:53.409Z,51.33
2022-09-18T22:47:21.622Z,51.30
2022-09-18T22:49:49.766Z,51.20
2022-09-18T22:52:17.823Z,51.45
2022-09-18T22:54:46.139Z,51.57
2022-09-18T22:57:14.266Z,51.47
2022-09-18T22:59:43.783Z,51.39
2022-09-18T23:02:12.140Z,51.35
2022-09-18T23:04:40.564Z,51.49
2022-09-18T23:07:09.023Z,51.70
2022-09-18T23:09:37.430Z,51.59
2022-09-18T23:12:06.409Z,51.62
2022-09-18T23:14:34.760Z,51.93
2022-09-18T23:17:04.513Z,51.79
2022-09-18T23:19:34.548Z,52.03
2022-09-18T23:22:03.019Z,51.91
2022-09-18T23:24:31.907Z,52.03
2022-09-18T23:27:00.135Z,51.86
2022-09-18T23:29:29.364Z,51.95
2022-09-18T23:31:59.756Z,52.00
2022-09-18T23:34:34.945Z,51.90
2022-09-18T23:37:03.333Z,51.66
2022-09-18T23:39:32.797Z,51.55
2022-09-18T23:42:01.504Z,51.81
2022-09-18T23:44:31.279Z,51.67
2022-09-18T23:47:00.355Z,52.01
2022-09-18T23:49:30.161Z,51.88
2022-09-18T23:51:59.448Z,52.01
2022-09-18T23:54:28.759Z,51.97
2022-09-18T23:56:56.827Z,52.03
2022-09-18T23:59:26.286Z,52.08
